createdAt,value
2017-09-05T00:00:06.984Z,74.05
2017-09-05T00:01:06.943Z,74.05
2017-09-05T00:02:06.902Z,73.86
2017-09-05T00:03:06.870Z,74.05
2017-09-05T00:04:06.916Z,73.48
2017-09-05T00:05:06.803Z,73.86
2017-09-05T00:06:06.773Z,73.96
2017-09-05T00:07:06.738Z,73.96
2017-09-05T00:08:06.708Z,73.96
2017-09-05T00:09:06.666Z,73.29
2017-09-05T00:10:06.631Z,73.96
2017-09-05T00:11:06.595Z,74.05
2017-09-05T00:12:06.557Z,74.05
2017-09-05T00:13:06.529Z,73.96
2017-09-05T00:14:06.496Z,73.96
2017-09-05T00:15:06.464Z,74.15
2017-09-05T00:16:06.466Z,73.67
2017-09-05T00:17:06.393Z,74.15
2017-09-05T00:18:06.360Z,74.15
2017-09-05T00:19:06.327Z,74.05
2017-09-05T00:20:06.287Z,74.73
2017-09-05T00:21:06.253Z,74.15
2017-09-05T00:22:06.223Z,73.96
2017-09-05T00:23:06.184Z,73.48
2017-09-05T00:24:06.145Z,73.58
2017-09-05T00:25:06.109Z,73.58
2017-09-05T00:26:06.078Z,73.77
2017-09-05T00:27:06.041Z,73.58
2017-09-05T00:28:06.005Z,73.67
2017-09-05T00:29:05.974Z,73.67
2017-09-05T00:30:05.941Z,74.24
2017-09-05T00:31:05.904Z,74.05
2017-09-05T00:32:05.866Z,74.73
2017-09-05T00:33:05.836Z,74.73
2017-09-05T00:34:05.801Z,74.44
2017-09-05T00:35:05.764Z,74.24
2017-09-05T00:36:05.730Z,74.63
2017-09-05T00:37:05.694Z,75.07
2017-09-05T00:38:05.662Z,74.88
2017-09-05T00:39:05.623Z,75.45
2017-09-05T00:40:05.591Z,75.93
2017-09-05T00:41:05.561Z,75.93
2017-09-05T00:42:05.523Z,76.50
2017-09-05T00:43:05.485Z,76.88
2017-09-05T00:44:05.457Z,76.60
2017-09-05T00:45:05.426Z,76.65
2017-09-05T00:46:05.386Z,77.03
2017-09-05T00:47:05.348Z,77.23
2017-09-05T00:48:05.312Z,77.61
2017-09-05T00:49:05.278Z,77.80
2017-09-05T00:50:05.247Z,77.45
2017-09-05T00:51:05.214Z,77.70
2017-09-05T00:52:05.172Z,78.70
2017-09-05T00:53:05.142Z,77.99
2017-09-05T00:54:05.102Z,77.70
2017-09-05T00:55:05.064Z,77.65
2017-09-05T00:56:05.039Z,77.55
2017-09-05T00:57:05.000Z,77.65
2017-09-05T00:58:04.967Z,77.74
2017-09-05T00:59:04.930Z,77.80
2017-09-05T01:00:04.893Z,77.70
2017-09-05T01:01:04.871Z,77.84
2017-09-05T01:02:04.855Z,78.28
2017-09-05T01:03:04.788Z,78.47
2017-09-05T01:04:04.755Z,78.51
2017-09-05T01:05:04.721Z,78.99
2017-09-05T01:06:04.689Z,78.89
2017-09-05T01:07:04.650Z,79.08
2017-09-05T01:08:04.615Z,79.23
2017-09-05T01:09:04.579Z,79.65
2017-09-05T01:10:04.581Z,79.52
2017-09-05T01:11:04.515Z,79.46
2017-09-05T01:12:04.479Z,79.75
2017-09-05T01:13:04.447Z,79.85
2017-09-05T01:14:04.405Z,79.17
2017-09-05T01:15:04.375Z,79.08
2017-09-05T01:16:04.332Z,79.08
2017-09-05T01:17:04.302Z,79.08
2017-09-05T01:18:04.264Z,78.60
2017-09-05T01:19:04.237Z,78.70
2017-09-05T01:20:04.195Z,78.60
2017-09-05T01:21:04.165Z,78.79
2017-09-05T01:22:04.124Z,79.08
2017-09-05T01:23:04.096Z,79.65
2017-09-05T01:24:04.063Z,79.75
2017-09-05T01:25:04.027Z,79.36
2017-09-05T01:26:03.989Z,79.36
2017-09-05T01:27:03.954Z,79.56
2017-09-05T01:28:03.911Z,79.46
2017-09-05T01:29:03.881Z,79.65
2017-09-05T01:30:03.852Z,79.46
2017-09-05T01:31:03.817Z,79.46
2017-09-05T01:32:03.779Z,79.52
2017-09-05T01:33:03.745Z,79.94
2017-09-05T01:34:03.712Z,79.75
2017-09-05T01:35:03.675Z,80.04
2017-09-05T01:36:03.640Z,79.75
2017-09-05T01:37:03.618Z,79.36
2017-09-05T01:38:03.573Z,79.36
2017-09-05T01:39:03.535Z,79.56
2017-09-05T01:40:03.502Z,79.75
2017-09-05T01:41:03.466Z,78.89
2017-09-05T01:42:03.425Z,78.70
2017-09-05T01:43:03.395Z,78.70
2017-09-05T01:44:03.361Z,78.51
2017-09-05T01:45:03.328Z,78.70
2017-09-05T01:46:03.297Z,78.99
2017-09-05T01:47:03.255Z,78.79
2017-09-05T01:48:03.223Z,79.17
2017-09-05T01:49:03.183Z,79.08
2017-09-05T01:50:03.155Z,79.52
2017-09-05T01:51:03.117Z,79.27
2017-09-05T01:52:03.083Z,79.65
2017-09-05T01:53:03.044Z,80.04
2017-09-05T01:54:03.011Z,80.41
2017-09-05T01:55:02.977Z,80.51
2017-09-05T01:56:02.941Z,80.61
2017-09-05T01:57:02.905Z,80.70
2017-09-05T01:58:02.876Z,81.09
2017-09-05T01:59:02.837Z,80.90
2017-09-05T02:00:02.809Z,80.90
2017-09-05T02:01:02.761Z,80.99
2017-09-05T02:02:02.742Z,81.04
2017-09-05T02:03:02.693Z,80.85
2017-09-05T02:04:02.661Z,80.99
2017-09-05T02:05:02.629Z,80.95
2017-09-05T02:06:02.587Z,80.85
2017-09-05T02:07:02.578Z,81.09
2017-09-05T02:08:02.523Z,80.76
2017-09-05T02:09:02.490Z,80.76
2017-09-05T02:10:02.452Z,81.09
2017-09-05T02:11:02.416Z,80.47
2017-09-05T02:12:02.379Z,80.38
2017-09-05T02:13:02.342Z,80.38
2017-09-05T02:14:02.311Z,79.90
2017-09-05T02:15:02.277Z,79.99
2017-09-05T02:16:02.234Z,79.80
2017-09-05T02:17:02.205Z,79.90
2017-09-05T02:18:02.172Z,79.56
2017-09-05T02:19:02.136Z,79.90
2017-09-05T02:20:02.091Z,79.85
2017-09-05T02:21:02.064Z,80.22
2017-09-05T02:22:02.028Z,79.90
2017-09-05T02:23:01.994Z,80.13
2017-09-05T02:24:01.952Z,80.04
2017-09-05T02:25:01.926Z,79.99
2017-09-05T02:26:01.891Z,79.85
2017-09-05T02:27:01.889Z,80.28
2017-09-05T02:28:01.816Z,80.19
2017-09-05T02:29:01.787Z,80.38
2017-09-05T02:30:01.744Z,81.04
2017-09-05T02:31:01.719Z,81.04
2017-09-05T02:32:01.674Z,81.14
2017-09-05T02:33:01.643Z,81.43
2017-09-05T02:34:01.606Z,81.33
2017-09-05T02:35:01.575Z,81.71
2017-09-05T02:36:01.540Z,81.33
2017-09-05T02:37:01.503Z,81.52
2017-09-05T02:38:01.466Z,81.62
2017-09-05T02:39:01.431Z,81.90
2017-09-05T02:40:01.396Z,81.71
2017-09-05T02:41:01.365Z,81.62
2017-09-05T02:42:01.325Z,81.52
2017-09-05T02:43:01.294Z,81.81
2017-09-05T02:44:01.258Z,81.81
2017-09-05T02:45:01.215Z,82.09
2017-09-05T02:46:01.184Z,82.00
2017-09-05T02:47:01.155Z,82.29
2017-09-05T02:48:01.110Z,82.19
2017-09-05T02:49:01.074Z,81.90
2017-09-05T02:50:01.044Z,81.62
2017-09-05T02:51:01.003Z,81.52
2017-09-05T02:52:00.979Z,82.09
2017-09-05T02:53:00.932Z,81.62
2017-09-05T02:54:00.907Z,81.81
2017-09-05T02:55:00.876Z,81.62
2017-09-05T02:56:00.827Z,81.90
2017-09-05T02:57:00.793Z,82.00
2017-09-05T02:58:00.762Z,82.00
2017-09-05T02:59:00.722Z,81.81
2017-09-05T03:00:00.704Z,81.71
2017-09-05T03:01:00.652Z,81.81
2017-09-05T03:02:00.621Z,81.62
2017-09-05T03:03:00.577Z,81.71
2017-09-05T03:04:00.550Z,81.62
2017-09-05T03:05:00.511Z,81.52
2017-09-05T03:06:00.478Z,81.90
2017-09-05T03:07:00.438Z,81.62
2017-09-05T03:08:00.408Z,82.19
2017-09-05T03:09:00.371Z,82.00
2017-09-05T03:10:00.333Z,82.00
2017-09-05T03:11:00.302Z,81.52
2017-09-05T03:12:00.262Z,81.71
2017-09-05T03:13:00.235Z,81.90
2017-09-05T03:14:00.193Z,82.29
2017-09-05T03:15:00.164Z,82.29
2017-09-05T03:16:00.121Z,82.38
2017-09-05T03:17:00.088Z,82.00
2017-09-05T03:18:00.047Z,82.34
2017-09-05T03:19:00.014Z,82.91
2017-09-05T03:19:59.985Z,82.53
2017-09-05T03:20:59.948Z,82.86
2017-09-05T03:21:59.913Z,82.53
2017-09-05T03:22:59.872Z,82.72
2017-09-05T03:23:59.844Z,82.53
2017-09-05T03:24:59.813Z,82.43
2017-09-05T03:25:59.782Z,82.43
2017-09-05T03:26:59.736Z,82.53
2017-09-05T03:27:59.698Z,82.63
2017-09-05T03:28:59.661Z,83.29
2017-09-05T03:29:59.624Z,83.29
2017-09-05T03:30:59.600Z,83.01
2017-09-05T03:31:59.553Z,83.39
2017-09-05T03:32:59.520Z,82.82
2017-09-05T03:33:59.480Z,82.63
2017-09-05T03:34:59.452Z,83.29
2017-09-05T03:35:59.415Z,83.20
2017-09-05T03:36:59.381Z,83.29
2017-09-05T03:37:59.342Z,83.58
2017-09-05T03:38:59.311Z,83.96
2017-09-05T03:39:59.269Z,83.39
2017-09-05T03:40:59.240Z,83.20
2017-09-05T03:41:59.201Z,83.29
2017-09-05T03:42:59.192Z,82.53
2017-09-05T03:43:59.130Z,82.72
2017-09-05T03:44:59.092Z,82.63
2017-09-05T03:45:59.057Z,82.82
2017-09-05T03:46:59.078Z,82.91
2017-09-05T03:47:58.982Z,83.29
2017-09-05T03:48:58.947Z,82.91
2017-09-05T03:49:58.912Z,82.91
2017-09-05T03:50:58.878Z,83.58
2017-09-05T03:51:58.844Z,83.20
2017-09-05T03:52:58.818Z,83.20
2017-09-05T03:53:58.772Z,83.39
2017-09-05T03:54:58.732Z,83.29
2017-09-05T03:55:58.737Z,83.77
2017-09-05T03:56:58.662Z,83.29
2017-09-05T03:57:58.626Z,83.20
2017-09-05T03:58:58.597Z,83.39
2017-09-05T03:59:58.565Z,83.77
2017-09-05T04:00:58.526Z,82.82
2017-09-05T04:01:58.493Z,83.20
2017-09-05T04:02:58.447Z,83.29
2017-09-05T04:03:58.413Z,83.48
2017-09-05T04:04:58.374Z,83.67
2017-09-05T04:05:58.342Z,83.01
2017-09-05T04:06:58.306Z,83.11
2017-09-05T04:07:58.281Z,83.11
2017-09-05T04:08:58.235Z,83.48
2017-09-05T04:09:58.202Z,83.39
2017-09-05T04:10:58.163Z,83.39
2017-09-05T04:11:58.127Z,83.39
2017-09-05T04:12:58.102Z,82.82
2017-09-05T04:13:58.059Z,82.91
2017-09-05T04:14:58.019Z,83.20
2017-09-05T04:15:57.993Z,83.39
2017-09-05T04:16:57.951Z,83.77
2017-09-05T04:17:57.915Z,83.67
2017-09-05T04:18:57.878Z,83.77
2017-09-05T04:19:57.842Z,83.20
2017-09-05T04:20:57.802Z,83.20
2017-09-05T04:21:57.774Z,83.39
2017-09-05T04:22:57.742Z,83.39
2017-09-05T04:23:57.702Z,83.39
2017-09-05T04:24:57.683Z,83.20
2017-09-05T04:25:57.633Z,83.29
2017-09-05T04:26:57.593Z,83.39
2017-09-05T04:27:57.558Z,83.29
2017-09-05T04:28:57.538Z,83.29
2017-09-05T04:29:57.483Z,83.20
2017-09-05T04:30:57.456Z,82.91
2017-09-05T04:31:57.414Z,82.91
2017-09-05T04:32:57.376Z,82.53
2017-09-05T04:33:57.342Z,82.82
2017-09-05T04:34:57.313Z,82.53
2017-09-05T04:35:57.276Z,82.06
2017-09-05T04:36:57.247Z,82.06
2017-09-05T04:37:57.202Z,82.24
2017-09-05T04:38:57.169Z,82.48
2017-09-05T04:39:57.130Z,82.34
2017-09-05T04:40:57.094Z,82.15
2017-09-05T04:41:57.055Z,81.71
2017-09-05T04:42:57.028Z,80.76
2017-09-05T04:43:56.994Z,80.51
2017-09-05T04:44:56.953Z,80.04
2017-09-05T04:45:56.919Z,79.75
2017-09-05T04:46:56.912Z,78.70
2017-09-05T04:47:56.845Z,77.01
2017-09-05T04:48:56.813Z,76.54
2017-09-05T04:49:56.781Z,76.60
2017-09-05T04:50:56.739Z,77.65
2017-09-05T04:51:56.702Z,77.55
2017-09-05T04:52:56.672Z,77.45
2017-09-05T04:53:56.643Z,78.03
2017-09-05T04:54:56.600Z,77.74
2017-09-05T04:55:56.573Z,76.35
2017-09-05T04:56:56.533Z,76.06
2017-09-05T04:57:56.498Z,76.40
2017-09-05T04:58:56.468Z,75.68
2017-09-05T04:59:56.435Z,74.57
2017-09-05T05:00:56.408Z,73.94
2017-09-05T05:01:56.364Z,72.16
2017-09-05T05:02:56.332Z,70.76
2017-09-05T05:03:56.297Z,68.46
2017-09-05T05:04:56.272Z,67.69
2017-09-05T05:05:56.226Z,67.54
2017-09-05T05:06:56.195Z,66.38
2017-09-05T05:07:56.163Z,65.55
2017-09-05T05:08:56.124Z,66.96
2017-09-05T05:09:56.093Z,66.19
2017-09-05T05:10:56.063Z,65.81
2017-09-05T05:11:56.028Z,64.79
2017-09-05T05:12:55.991Z,63.89
2017-09-05T05:13:55.971Z,64.98
2017-09-05T05:14:55.936Z,64.31
2017-09-05T05:15:55.893Z,63.86
2017-09-05T05:16:55.873Z,62.45
2017-09-05T05:17:55.830Z,61.30
2017-09-05T05:18:55.794Z,60.08
2017-09-05T05:19:55.768Z,60.18
2017-09-05T05:20:55.731Z,60.05
2017-09-05T05:21:55.707Z,59.61
2017-09-05T05:22:55.671Z,59.06
2017-09-05T05:23:55.644Z,57.90
2017-09-05T05:24:55.601Z,57.45
2017-09-05T05:25:55.577Z,57.97
2017-09-05T05:26:55.543Z,57.90
2017-09-05T05:27:55.510Z,57.90
2017-09-05T05:28:55.482Z,56.88
2017-09-05T05:29:55.450Z,55.85
2017-09-05T05:30:55.413Z,54.99
2017-09-05T05:31:55.394Z,54.38
2017-09-05T05:32:55.354Z,55.18
2017-09-05T05:33:55.340Z,54.53
2017-09-05T05:34:55.295Z,53.47
2017-09-05T05:35:55.263Z,52.89
2017-09-05T05:36:55.235Z,56.15
2017-09-05T05:37:55.312Z,57.43
2017-09-05T05:38:55.171Z,58.94
2017-09-05T05:39:55.188Z,58.81
2017-09-05T05:40:55.113Z,60.05
2017-09-05T05:41:55.086Z,59.09
2017-09-05T05:42:55.055Z,59.16
2017-09-05T05:43:55.023Z,60.79
2017-09-05T05:44:54.987Z,60.44
2017-09-05T05:45:54.958Z,58.58
2017-09-05T05:46:54.933Z,58.81
2017-09-05T05:47:54.900Z,60.12
2017-09-05T05:48:54.870Z,61.15
2017-09-05T05:49:54.850Z,61.53
2017-09-05T05:50:54.809Z,61.08
2017-09-05T05:51:54.778Z,60.25
2017-09-05T05:52:54.763Z,59.19
2017-09-05T05:53:54.722Z,59.55
2017-09-05T05:54:54.688Z,60.44
2017-09-05T05:55:54.661Z,60.35
2017-09-05T05:56:54.629Z,59.03
2017-09-05T05:57:54.603Z,57.23
2017-09-05T05:58:54.571Z,56.27
2017-09-05T05:59:54.541Z,56.85
2017-09-05T06:00:54.539Z,56.82
2017-09-05T06:01:54.486Z,57.88
2017-09-05T06:02:54.456Z,58.45
2017-09-05T06:03:54.421Z,56.40
2017-09-05T06:04:54.391Z,54.31
2017-09-05T06:05:54.372Z,53.09
2017-09-05T06:06:54.339Z,51.48
2017-09-05T06:07:54.313Z,49.68
2017-09-05T06:08:54.273Z,49.96
2017-09-05T06:09:54.245Z,49.96
2017-09-05T06:10:54.219Z,50.99
2017-09-05T06:11:54.185Z,50.32
2017-09-05T06:12:54.159Z,50.99
2017-09-05T06:13:54.129Z,49.77
2017-09-05T06:14:54.159Z,50.97
2017-09-05T06:15:54.076Z,50.42
2017-09-05T06:16:54.041Z,49.51
2017-09-05T06:17:54.016Z,48.18
2017-09-05T06:18:53.994Z,47.97
2017-09-05T06:19:53.960Z,49.22
2017-09-05T06:20:53.931Z,49.46
2017-09-05T06:21:53.899Z,50.71
2017-09-05T06:22:53.882Z,51.11
2017-09-05T06:23:53.844Z,54.55
2017-09-05T06:24:53.817Z,53.92
2017-09-05T06:25:53.779Z,52.48
2017-09-05T06:26:53.752Z,51.55
2017-09-05T06:27:53.721Z,52.17
2017-09-05T06:28:53.691Z,54.45
2017-09-05T06:29:53.662Z,53.76
2017-09-05T06:30:53.645Z,52.03
2017-09-05T06:31:53.607Z,50.90
2017-09-05T06:32:53.582Z,50.78
2017-09-05T06:33:53.560Z,51.35
2017-09-05T06:34:53.521Z,52.48
2017-09-05T06:35:53.498Z,52.87
2017-09-05T06:36:53.495Z,53.13
2017-09-05T06:37:53.439Z,52.06
2017-09-05T06:38:53.415Z,51.48
2017-09-05T06:39:53.377Z,51.53
2017-09-05T06:40:53.356Z,52.39
2017-09-05T06:41:53.330Z,52.46
2017-09-05T06:42:53.294Z,54.28
2017-09-05T06:43:53.272Z,54.31
2017-09-05T06:44:53.241Z,53.06
2017-09-05T06:45:53.253Z,54.42
2017-09-05T06:46:53.183Z,55.32
2017-09-05T06:47:53.157Z,55.38
2017-09-05T06:48:53.125Z,54.19
2017-09-05T06:49:53.097Z,52.22
2017-09-05T06:50:53.067Z,51.72
2017-09-05T06:51:53.048Z,52.42
2017-09-05T06:52:53.014Z,51.45
2017-09-05T06:53:52.984Z,51.81
2017-09-05T06:54:52.958Z,51.48
2017-09-05T06:55:52.924Z,53.87
2017-09-05T06:56:52.913Z,56.15
2017-09-05T06:57:52.870Z,55.60
2017-09-05T06:58:52.846Z,54.86
2017-09-05T06:59:52.839Z,53.78
2017-09-05T07:00:52.781Z,54.96
2017-09-05T07:01:52.755Z,55.44
2017-09-05T07:02:52.725Z,56.24
2017-09-05T07:03:52.701Z,59.26
2017-09-05T07:04:52.692Z,60.60
2017-09-05T07:05:52.636Z,62.36
2017-09-05T07:06:52.618Z,63.03
2017-09-05T07:07:52.594Z,63.60
2017-09-05T07:08:52.561Z,64.47
2017-09-05T07:09:52.527Z,64.09
2017-09-05T07:10:52.500Z,63.80
2017-09-05T07:11:52.465Z,64.37
2017-09-05T07:12:52.446Z,63.83
2017-09-05T07:13:52.566Z,63.73
2017-09-05T07:14:52.379Z,63.73
2017-09-05T07:15:52.358Z,63.64
2017-09-05T07:16:52.330Z,63.83
2017-09-05T07:17:52.296Z,63.29
2017-09-05T07:18:52.266Z,63.09
2017-09-05T07:19:52.237Z,62.62
2017-09-05T07:20:52.221Z,62.62
2017-09-05T07:21:52.179Z,62.62
2017-09-05T07:22:52.156Z,62.33
2017-09-05T07:23:52.122Z,62.33
2017-09-05T07:24:52.094Z,62.42
2017-09-05T07:25:52.071Z,62.81
2017-09-05T07:26:52.026Z,63.00
2017-09-05T07:27:52.002Z,62.33
2017-09-05T07:28:51.974Z,62.42
2017-09-05T07:29:51.940Z,62.81
2017-09-05T07:30:51.910Z,63.54
2017-09-05T07:31:51.899Z,63.54
2017-09-05T07:32:51.851Z,63.57
2017-09-05T07:33:51.818Z,63.48
2017-09-05T07:34:51.794Z,63.29
2017-09-05T07:35:51.765Z,63.38
2017-09-05T07:36:51.726Z,63.00
2017-09-05T07:37:51.700Z,63.09
2017-09-05T07:38:51.672Z,62.33
2017-09-05T07:39:51.640Z,62.13
2017-09-05T07:40:51.610Z,62.96
2017-09-05T07:41:51.579Z,63.48
2017-09-05T07:42:51.547Z,63.48
2017-09-05T07:43:51.514Z,62.81
2017-09-05T07:44:51.488Z,62.33
2017-09-05T07:45:51.457Z,62.33
2017-09-05T07:46:51.459Z,62.23
2017-09-05T07:47:51.391Z,62.42
2017-09-05T07:48:51.366Z,62.13
2017-09-05T07:49:51.329Z,61.75
2017-09-05T07:50:51.299Z,60.99
2017-09-05T07:51:51.274Z,61.02
2017-09-05T07:52:51.240Z,60.89
2017-09-05T07:53:51.206Z,60.25
2017-09-05T07:54:51.174Z,60.44
2017-09-05T07:55:51.162Z,60.25
2017-09-05T07:56:51.132Z,60.63
2017-09-05T07:57:51.082Z,60.53
2017-09-05T07:58:51.054Z,60.25
2017-09-05T07:59:51.018Z,60.25
2017-09-05T08:00:50.990Z,59.86
2017-09-05T08:01:50.969Z,59.29
2017-09-05T08:02:50.928Z,59.58
2017-09-05T08:03:50.896Z,59.86
2017-09-05T08:04:50.892Z,59.61
2017-09-05T08:05:50.831Z,59.58
2017-09-05T08:06:50.802Z,59.67
2017-09-05T08:07:50.765Z,60.05
2017-09-05T08:08:50.752Z,59.29
2017-09-05T08:09:50.712Z,59.09
2017-09-05T08:10:50.675Z,59.67
2017-09-05T08:11:50.652Z,59.12
2017-09-05T08:12:50.621Z,59.61
2017-09-05T08:13:50.590Z,59.00
2017-09-05T08:14:50.556Z,59.67
2017-09-05T08:15:50.535Z,59.32
2017-09-05T08:16:50.486Z,58.84
2017-09-05T08:17:50.460Z,58.33
2017-09-05T08:18:50.434Z,58.91
2017-09-05T08:19:50.404Z,58.74
2017-09-05T08:20:50.361Z,58.84
2017-09-05T08:21:50.335Z,58.94
2017-09-05T08:22:50.301Z,58.84
2017-09-05T08:23:51.089Z,59.51
2017-09-05T08:24:50.236Z,59.51
2017-09-05T08:25:50.214Z,59.12
2017-09-05T08:26:50.169Z,58.17
2017-09-05T08:27:50.148Z,57.88
2017-09-05T08:28:50.117Z,57.50
2017-09-05T08:29:50.089Z,57.97
2017-09-05T08:30:50.058Z,58.74
2017-09-05T08:31:50.022Z,57.88
2017-09-05T08:32:49.996Z,58.10
2017-09-05T08:33:49.957Z,56.95
2017-09-05T08:34:49.963Z,57.23
2017-09-05T08:35:49.894Z,56.76
2017-09-05T08:36:49.870Z,56.76
2017-09-05T08:37:49.837Z,57.21
2017-09-05T08:38:49.805Z,56.53
2017-09-05T08:39:49.771Z,56.63
2017-09-05T08:40:49.748Z,56.95
2017-09-05T08:41:49.703Z,57.21
2017-09-05T08:42:49.676Z,56.95
2017-09-05T08:43:49.641Z,56.76
2017-09-05T08:44:49.611Z,57.23
2017-09-05T08:45:49.587Z,57.43
2017-09-05T08:46:49.557Z,55.99
2017-09-05T08:47:49.521Z,55.89
2017-09-05T08:48:49.491Z,56.37
2017-09-05T08:49:49.463Z,57.23
2017-09-05T08:50:49.429Z,56.30
2017-09-05T08:51:49.398Z,56.37
2017-09-05T08:52:49.356Z,55.82
2017-09-05T08:53:49.330Z,54.67
2017-09-05T08:54:49.302Z,54.67
2017-09-05T08:55:49.278Z,55.05
2017-09-05T08:56:49.301Z,55.22
2017-09-05T08:57:49.206Z,55.73
2017-09-05T08:58:49.178Z,55.44
2017-09-05T08:59:49.142Z,55.44
2017-09-05T09:00:49.118Z,56.18
2017-09-05T09:01:49.078Z,55.91
2017-09-05T09:02:49.047Z,55.82
2017-09-05T09:03:49.019Z,55.82
2017-09-05T09:04:48.993Z,56.11
2017-09-05T09:05:48.975Z,56.49
2017-09-05T09:06:48.924Z,56.49
2017-09-05T09:07:48.899Z,56.04
2017-09-05T09:08:48.864Z,55.82
2017-09-05T09:09:48.839Z,55.08
2017-09-05T09:10:48.805Z,55.66
2017-09-05T09:11:48.773Z,54.50
2017-09-05T09:12:48.737Z,54.41
2017-09-05T09:13:48.725Z,54.79
2017-09-05T09:14:48.681Z,54.67
2017-09-05T09:15:48.657Z,54.41
2017-09-05T09:16:48.620Z,55.37
2017-09-05T09:17:48.598Z,54.77
2017-09-05T09:18:48.553Z,55.46
2017-09-05T09:19:48.528Z,55.08
2017-09-05T09:20:48.499Z,55.05
2017-09-05T09:21:48.471Z,55.08
2017-09-05T09:22:48.435Z,54.89
2017-09-05T09:23:48.405Z,54.50
2017-09-05T09:24:48.371Z,54.22
2017-09-05T09:25:48.359Z,54.28
2017-09-05T09:26:48.313Z,54.22
2017-09-05T09:27:48.286Z,54.47
2017-09-05T09:28:48.272Z,54.12
2017-09-05T09:29:48.230Z,54.69
2017-09-05T09:30:48.190Z,54.02
2017-09-05T09:31:48.173Z,54.12
2017-09-05T09:32:48.133Z,54.41
2017-09-05T09:33:48.655Z,53.92
2017-09-05T09:34:48.071Z,54.50
2017-09-05T09:35:48.687Z,54.31
2017-09-05T09:36:48.011Z,54.31
2017-09-05T09:37:47.973Z,54.22
2017-09-05T09:38:47.947Z,54.41
2017-09-05T09:39:47.920Z,54.41
2017-09-05T09:40:47.885Z,54.41
2017-09-05T09:41:47.856Z,54.22
2017-09-05T09:42:47.839Z,54.24
2017-09-05T09:43:47.805Z,54.50
2017-09-05T09:44:47.855Z,53.45
2017-09-05T09:45:47.728Z,53.16
2017-09-05T09:46:47.702Z,53.16
2017-09-05T09:47:47.673Z,54.24
2017-09-05T09:48:47.648Z,53.76
2017-09-05T09:49:47.612Z,54.14
2017-09-05T09:50:47.645Z,54.14
2017-09-05T09:51:47.543Z,53.76
2017-09-05T09:52:47.606Z,53.86
2017-09-05T09:53:47.485Z,54.14
2017-09-05T09:54:47.464Z,54.14
2017-09-05T09:55:47.428Z,54.24
2017-09-05T09:56:47.406Z,53.19
2017-09-05T09:57:47.365Z,53.28
2017-09-05T09:58:47.329Z,53.28
2017-09-05T09:59:47.306Z,52.42
2017-09-05T10:00:47.274Z,52.99
2017-09-05T10:01:47.253Z,53.09
2017-09-05T10:02:47.226Z,52.51
2017-09-05T10:03:47.292Z,52.34
2017-09-05T10:04:47.150Z,52.06
2017-09-05T10:05:47.120Z,52.44
2017-09-05T10:06:47.088Z,52.54
2017-09-05T10:07:47.061Z,51.57
2017-09-05T10:08:47.028Z,51.86
2017-09-05T10:09:46.995Z,51.74
2017-09-05T10:10:47.005Z,51.76
2017-09-05T10:11:46.945Z,51.57
2017-09-05T10:12:46.947Z,52.15
2017-09-05T10:13:46.882Z,52.44
2017-09-05T10:14:46.851Z,52.44
2017-09-05T10:15:46.911Z,52.06
2017-09-05T10:16:46.785Z,51.57
2017-09-05T10:17:46.775Z,51.50
2017-09-05T10:18:46.729Z,51.50
2017-09-05T10:19:46.702Z,51.57
2017-09-05T10:20:46.670Z,51.48
2017-09-05T10:21:46.638Z,51.57
2017-09-05T10:22:46.618Z,52.15
2017-09-05T10:23:46.572Z,52.25
2017-09-05T10:24:46.544Z,51.76
2017-09-05T10:25:46.526Z,51.57
2017-09-05T10:26:46.500Z,51.57
2017-09-05T10:27:46.453Z,51.70
2017-09-05T10:28:46.427Z,51.50
2017-09-05T10:29:46.395Z,51.41
2017-09-05T10:30:46.366Z,50.81
2017-09-05T10:31:46.335Z,50.90
2017-09-05T10:32:46.316Z,51.02
2017-09-05T10:33:46.283Z,51.02
2017-09-05T10:34:46.256Z,50.83
2017-09-05T10:35:46.228Z,50.63
2017-09-05T10:36:46.203Z,50.83
2017-09-05T10:37:46.159Z,49.99
2017-09-05T10:38:46.171Z,50.57
2017-09-05T10:39:46.099Z,49.99
2017-09-05T10:40:46.068Z,50.66
2017-09-05T10:41:46.039Z,49.60
2017-09-05T10:42:46.004Z,49.22
2017-09-05T10:43:46.010Z,48.74
2017-09-05T10:44:45.963Z,49.02
2017-09-05T10:45:45.922Z,48.64
2017-09-05T10:46:45.883Z,48.86
2017-09-05T10:47:45.868Z,49.41
2017-09-05T10:48:45.828Z,49.70
2017-09-05T10:49:45.801Z,49.70
2017-09-05T10:50:45.767Z,49.22
2017-09-05T10:51:45.744Z,48.93
2017-09-05T10:52:45.760Z,48.44
2017-09-05T10:53:45.710Z,48.25
2017-09-05T10:54:45.657Z,48.83
2017-09-05T10:55:45.623Z,48.74
2017-09-05T10:56:45.590Z,49.29
2017-09-05T10:57:45.555Z,49.38
2017-09-05T10:58:45.532Z,49.29
2017-09-05T10:59:45.499Z,48.33
2017-09-05T11:00:45.534Z,47.36
2017-09-05T11:01:45.450Z,47.94
2017-09-05T11:02:45.423Z,47.67
2017-09-05T11:03:45.384Z,48.06
2017-09-05T11:04:45.352Z,47.58
2017-09-05T11:05:45.339Z,47.87
2017-09-05T11:06:45.294Z,47.97
2017-09-05T11:07:45.294Z,48.06
2017-09-05T11:08:45.231Z,47.75
2017-09-05T11:09:45.198Z,47.46
2017-09-05T11:10:45.169Z,47.75
2017-09-05T11:11:45.149Z,48.33
2017-09-05T11:12:45.113Z,48.35
2017-09-05T11:13:45.085Z,47.19
2017-09-05T11:14:45.090Z,47.58
2017-09-05T11:15:45.021Z,47.89
2017-09-05T11:16:45.019Z,47.97
2017-09-05T11:17:44.975Z,47.89
2017-09-05T11:18:44.930Z,47.67
2017-09-05T11:19:44.911Z,47.60
2017-09-05T11:20:44.874Z,47.89
2017-09-05T11:21:44.852Z,46.91
2017-09-05T11:22:44.811Z,47.39
2017-09-05T11:23:44.784Z,47.60
2017-09-05T11:24:44.752Z,47.60
2017-09-05T11:25:44.727Z,47.49
2017-09-05T11:26:44.693Z,47.39
2017-09-05T11:27:44.688Z,47.49
2017-09-05T11:28:44.636Z,47.89
2017-09-05T11:29:44.606Z,47.51
2017-09-05T11:30:44.570Z,47.67
2017-09-05T11:31:44.545Z,47.87
2017-09-05T11:32:44.533Z,47.49
2017-09-05T11:33:44.487Z,46.15
2017-09-05T11:34:44.463Z,44.98
2017-09-05T11:35:44.435Z,46.04
2017-09-05T11:36:44.393Z,45.87
2017-09-05T11:37:44.373Z,46.83
2017-09-05T11:38:44.345Z,46.73
2017-09-05T11:39:44.486Z,46.71
2017-09-05T11:40:44.286Z,47.77
2017-09-05T11:41:44.268Z,47.87
2017-09-05T11:42:44.270Z,47.87
2017-09-05T11:43:44.193Z,47.97
2017-09-05T11:44:44.237Z,47.70
2017-09-05T11:45:44.141Z,47.89
2017-09-05T11:46:44.102Z,47.97
2017-09-05T11:47:44.080Z,47.97
2017-09-05T11:48:44.045Z,48.25
2017-09-05T11:49:44.014Z,47.58
2017-09-05T11:50:43.994Z,46.55
2017-09-05T11:51:43.956Z,46.52
2017-09-05T11:52:43.922Z,46.64
2017-09-05T11:53:43.904Z,46.83
2017-09-05T11:54:43.865Z,46.06
2017-09-05T11:55:43.841Z,45.87
2017-09-05T11:56:43.823Z,46.06
2017-09-05T11:57:43.781Z,45.99
2017-09-05T11:58:43.740Z,45.87
2017-09-05T11:59:43.719Z,46.15
2017-09-05T12:00:43.694Z,45.58
2017-09-05T12:01:43.663Z,46.06
2017-09-05T12:02:43.633Z,46.55
2017-09-05T12:03:43.601Z,45.87
2017-09-05T12:04:43.570Z,45.10
2017-09-05T12:05:43.536Z,45.12
2017-09-05T12:06:43.528Z,43.55
2017-09-05T12:07:43.478Z,44.23
2017-09-05T12:08:43.450Z,43.96
2017-09-05T12:09:43.424Z,43.77
2017-09-05T12:10:43.390Z,44.25
2017-09-05T12:11:43.369Z,44.23
2017-09-05T12:12:43.337Z,44.83
2017-09-05T12:13:43.296Z,44.73
2017-09-05T12:14:43.283Z,44.71
2017-09-05T12:15:43.244Z,44.93
2017-09-05T12:16:43.220Z,44.35
2017-09-05T12:17:43.183Z,43.96
2017-09-05T12:18:43.156Z,44.15
2017-09-05T12:19:43.123Z,45.20
2017-09-05T12:20:43.130Z,44.64
2017-09-05T12:21:43.072Z,44.73
2017-09-05T12:22:43.032Z,44.54
2017-09-05T12:23:43.003Z,44.90
2017-09-05T12:24:42.982Z,44.90
2017-09-05T12:25:42.949Z,45.03
2017-09-05T12:26:42.918Z,44.93
2017-09-05T12:27:42.900Z,43.58
2017-09-05T12:28:42.892Z,43.96
2017-09-05T12:29:42.831Z,44.15
2017-09-05T12:30:42.798Z,43.67
2017-09-05T12:31:42.771Z,43.67
2017-09-05T12:32:42.746Z,43.60
2017-09-05T12:33:42.739Z,43.58
2017-09-05T12:34:42.682Z,43.96
2017-09-05T12:35:42.655Z,44.83
2017-09-05T12:36:42.624Z,44.83
2017-09-05T12:37:42.594Z,44.64
2017-09-05T12:38:42.571Z,44.93
2017-09-05T12:39:42.536Z,45.79
2017-09-05T12:40:42.508Z,45.99
2017-09-05T12:41:42.478Z,46.25
2017-09-05T12:42:42.458Z,45.58
2017-09-05T12:43:42.418Z,45.00
2017-09-05T12:44:42.386Z,45.97
2017-09-05T12:45:42.377Z,44.64
2017-09-05T12:46:42.334Z,44.25
2017-09-05T12:47:42.298Z,43.77
2017-09-05T12:48:42.269Z,43.19
2017-09-05T12:49:42.249Z,43.58
2017-09-05T12:50:42.219Z,42.80
2017-09-05T12:51:42.186Z,42.63